Aérodrome :
LOGIN :

S'inscrire | Disclaimer

   EN    FR    IT 

 










Légende :    VFR   VFR Marginal   IFR   IFR Intensif   IFR Très Intensif
Visi : 
Plafond : 
>= 8 km
>= 3000ft
5 à 8 km
1000 à 3000 ft
1500m à 5 km
500 à 1000 ft
800 à 1500m
200 à 500 ft
< 800m
< 200 ft
Symboles :   Orages  Brouillard  Fortes neiges  Fortes précipitations  Vent > 20 kt
SIGMETs :   Divers  Orages  Givrage  Turbulence  Onde Orograph.  Cendres Volcan.






- Altitude de l'aérodrome : 17 ft
- Code IATA : GRQ


EHGG - Groningen Eelde

DERNIER METAR :
  • 241125Z AUTO 21009KT 170V230 9999 FEW015/// SCT018/// BKN023/// 07/04 Q0997 NOSIG

METARs EXPIRÉS :
  • 241055Z AUTO 20011KT 170V230 9999 FEW014/// BKN016/// 07/04 Q0997 NOSIG
  • 241025Z AUTO 19007KT 160V230 9999 FEW012/// 07/04 Q0997 TEMPO BKN013
  • 240955Z AUTO 18009KT 150V210 9999 OVC011/// 06/04 Q0997 TEMPO SCT012
  • 240925Z AUTO 17008KT 140V210 9999 NSC 06/04 Q0996 NOSIG
  • 240855Z AUTO 17006KT 140V200 9999 NSC 05/03 Q0996 NOSIG
  • 240825Z AUTO 18006KT 9999 NSC 05/03 Q0996 NOSIG
  • 240755Z AUTO 18007KT 9999 BKN038 BKN043 OVC048 04/03 Q0996 NOSIG
  • 240725Z AUTO 17006KT 9999 FEW045 03/02 Q0995 NOSIG
  • 240655Z AUTO 16005KT 130V190 9999 FEW046 03/02 Q0995 NOSIG

TAF TAF EHGG
Valide du 24 à 12h jusqu'au 25 à 18h UTC


241119Z 2412/2518 20012KT 9999 BKN022
TEMPO 2413/2418 6000 SHRA FEW018CB BKN020
BECMG 2500/2503 16006KT
BECMG 2504/2507 SCT008 BKN012
TEMPO 2504/2513 4000 RADZ -SHRA BKN008 FEW020CB
BECMG 2510/2513 SCT018



MET'MAP, la Météo Aéronautique d'un coup d'oeil ! - Copyright ORBIFLY Décembre 2007 - Disclaimer

ORBIFLY MET'MAP TEAM :

Programmation & Développement : Alexandra Zaïnal
Sur une idée originale de : Baudouin d'Aumeries
Soutien technique & logistique : Manuel Goepfert
Assistance : Marc-Olivier Méhu




SOURCES & CREDITS :

   NOAA